Time;durP1;ratioP1;P1;durP2;ratioP2;P2;SDS_P1;SDS_P2;PMS_P1;PMS_P2;Temp;Humidity;BMP_temperature;BMP_pressure;BME280_temperature;BME280_humidity;BME280_pressure;Samples;Min_cycle;Max_cycle;Signal;HPM_P1;HPM_P2
2023/03/19 00:02:03;;;;;;;1.55;1.45;;;;;;;;;;5134832;27;20044;-60
2023/03/19 00:04:42;;;;;;;6.30;1.67;;;;;;;;;;5140121;27;20053;-60
2023/03/19 00:07:08;;;;;;;2.05;1.70;;;;;;;;;;5142945;27;20048;-60
2023/03/19 00:09:35;;;;;;;3.35;1.42;;;;;;;;;;5131270;27;20054;-61
2023/03/19 00:12:02;;;;;;;2.05;1.70;;;;;;;;;;5133817;27;20466;-60
2023/03/19 00:14:28;;;;;;;2.15;1.98;;;;;;;;;;5137758;27;20095;-61
2023/03/19 00:16:54;;;;;;;4.75;2.30;;;;;;;;;;5130609;27;21044;-61
2023/03/19 00:19:21;;;;;;;4.97;2.55;;;;;;;;;;5133617;27;20146;-61
2023/03/19 00:21:47;;;;;;;2.70;2.03;;;;;;;;;;5128032;27;20062;-61
2023/03/19 00:24:15;;;;;;;2.75;2.05;;;;;;;;;;5125437;27;20051;-60
2023/03/19 00:26:41;;;;;;;2.55;2.08;;;;;;;;;;5125370;27;20052;-61
2023/03/19 00:29:07;;;;;;;3.30;2.58;;;;;;;;;;5144890;27;20174;-61
2023/03/19 00:31:34;;;;;;;3.90;2.40;;;;;;;;;;5137768;27;20055;-62
2023/03/19 00:34:01;;;;;;;3.53;2.60;;;;;;;;;;5140087;27;20051;-60
2023/03/19 00:36:27;;;;;;;3.20;2.17;;;;;;;;;;5139073;27;20052;-61
2023/03/19 00:38:54;;;;;;;3.40;2.40;;;;;;;;;;5133338;27;20049;-62
2023/03/19 00:41:20;;;;;;;3.95;2.50;;;;;;;;;;5138087;27;20074;-61
2023/03/19 00:43:51;;;;;;;4.18;2.42;;;;;;;;;;5135421;27;20532;-60
2023/03/19 00:46:17;;;;;;;2.60;2.30;;;;;;;;;;5133881;27;20055;-61
2023/03/19 00:48:43;;;;;;;4.55;2.47;;;;;;;;;;5131236;27;20495;-61
2023/03/19 00:51:10;;;;;;;4.00;2.67;;;;;;;;;;5129973;27;20548;-61
2023/03/19 00:53:38;;;;;;;5.53;2.83;;;;;;;;;;5124271;27;20048;-60
2023/03/19 00:56:06;;;;;;;4.72;2.70;;;;;;;;;;5140367;27;20051;-62
2023/03/19 00:58:33;;;;;;;4.35;2.53;;;;;;;;;;5138546;27;20509;-61
2023/03/19 01:01:00;;;;;;;4.53;2.60;;;;;;;;;;5133012;27;20051;-61
2023/03/19 01:03:27;;;;;;;3.78;2.58;;;;;;;;;;5139281;27;20049;-62
2023/03/19 01:05:53;;;;;;;4.30;3.42;;;;;;;;;;5129869;27;20047;-60
2023/03/19 01:08:20;;;;;;;3.95;2.58;;;;;;;;;;5127267;27;20556;-61
2023/03/19 01:10:46;;;;;;;4.15;2.53;;;;;;;;;;5131570;27;20055;-61
2023/03/19 01:13:12;;;;;;;5.85;3.30;;;;;;;;;;5139515;27;20043;-61
2023/03/19 01:15:40;;;;;;;5.20;2.67;;;;;;;;;;5143168;27;20047;-61
2023/03/19 01:18:06;;;;;;;7.93;3.20;;;;;;;;;;5132011;27;20052;-61
2023/03/19 01:20:33;;;;;;;5.13;3.13;;;;;;;;;;5131470;27;20047;-62
2023/03/19 01:23:01;;;;;;;5.57;3.55;;;;;;;;;;5127213;27;20063;-61
2023/03/19 01:25:27;;;;;;;5.45;3.53;;;;;;;;;;5132278;27;20062;-60
2023/03/19 01:27:53;;;;;;;5.75;3.42;;;;;;;;;;5132110;27;20043;-60
2023/03/19 01:30:20;;;;;;;5.25;3.53;;;;;;;;;;5133343;27;20116;-61
2023/03/19 01:32:46;;;;;;;3.30;3.00;;;;;;;;;;5128046;27;20052;-61
2023/03/19 01:35:13;;;;;;;3.67;3.08;;;;;;;;;;5138897;27;20048;-61
2023/03/19 01:37:39;;;;;;;4.07;3.53;;;;;;;;;;5142663;27;20529;-60
2023/03/19 01:40:06;;;;;;;5.10;3.75;;;;;;;;;;5137949;27;20481;-60
2023/03/19 01:42:32;;;;;;;4.28;3.33;;;;;;;;;;5141821;27;20058;-61
2023/03/19 01:45:01;;;;;;;4.78;3.38;;;;;;;;;;5136084;27;20060;-60
2023/03/19 01:47:27;;;;;;;5.18;3.42;;;;;;;;;;5138590;27;20104;-60
2023/03/19 01:49:55;;;;;;;6.20;3.75;;;;;;;;;;5129127;27;20047;-60
2023/03/19 01:52:22;;;;;;;6.63;3.63;;;;;;;;;;5135342;27;20070;-60
2023/03/19 01:54:50;;;;;;;3.97;3.45;;;;;;;;;;5131779;27;20768;-60
2023/03/19 01:57:16;;;;;;;5.13;3.90;;;;;;;;;;5125806;27;20127;-61
2023/03/19 01:59:45;;;;;;;6.18;3.95;;;;;;;;;;5130204;27;20062;-60
2023/03/19 02:02:15;;;;;;;4.90;3.97;;;;;;;;;;5133337;27;20052;-61
2023/03/19 02:04:42;;;;;;;6.25;4.63;;;;;;;;;;5131613;27;20047;-60
2023/03/19 02:07:10;;;;;;;6.30;4.30;;;;;;;;;;5127013;27;20142;-61
2023/03/19 02:09:36;;;;;;;7.97;5.10;;;;;;;;;;5138156;27;20054;-60
2023/03/19 02:12:03;;;;;;;6.35;4.30;;;;;;;;;;5132702;27;20063;-60
2023/03/19 02:14:29;;;;;;;5.15;4.65;;;;;;;;;;5136061;27;20109;-61
2023/03/19 02:16:56;;;;;;;6.78;4.97;;;;;;;;;;5132885;27;20110;-62
2023/03/19 02:19:29;;;;;;;5.07;4.30;;;;;;;;;;5139302;27;20048;-60
2023/03/19 02:21:56;;;;;;;5.57;4.40;;;;;;;;;;5135804;27;20054;-62
2023/03/19 02:24:31;;;;;;;6.95;5.00;;;;;;;;;;5136904;27;20047;-60
2023/03/19 02:26:58;;;;;;;7.10;4.57;;;;;;;;;;5142010;27;20112;-60
2023/03/19 02:29:24;;;;;;;6.28;5.22;;;;;;;;;;5145149;27;20134;-61
2023/03/19 02:31:51;;;;;;;6.80;5.07;;;;;;;;;;5132884;27;20075;-61
2023/03/19 02:34:17;;;;;;;7.50;5.63;;;;;;;;;;5133821;27;20095;-60
2023/03/19 02:36:46;;;;;;;8.20;5.30;;;;;;;;;;5131611;27;20054;-60
2023/03/19 02:39:16;;;;;;;6.32;5.43;;;;;;;;;;5140518;27;20056;-60
2023/03/19 02:41:43;;;;;;;6.65;4.95;;;;;;;;;;5132820;27;20232;-61
2023/03/19 02:44:10;;;;;;;9.55;5.60;;;;;;;;;;5130054;27;20551;-60
2023/03/19 02:46:37;;;;;;;9.15;5.40;;;;;;;;;;5146190;27;20054;-61
2023/03/19 02:49:04;;;;;;;6.18;5.43;;;;;;;;;;5132307;27;20071;-60
2023/03/19 02:51:30;;;;;;;7.90;5.50;;;;;;;;;;5130617;27;20047;-62
2023/03/19 02:53:57;;;;;;;8.95;5.70;;;;;;;;;;5128800;27;20059;-61
2023/03/19 02:56:23;;;;;;;8.73;5.40;;;;;;;;;;5132575;27;20449;-60
2023/03/19 02:58:49;;;;;;;9.68;6.22;;;;;;;;;;5135845;27;20039;-61
2023/03/19 03:01:16;;;;;;;7.88;5.55;;;;;;;;;;5132178;27;20072;-62
2023/03/19 03:03:42;;;;;;;6.78;5.57;;;;;;;;;;5140588;27;20051;-61
2023/03/19 03:06:09;;;;;;;10.13;6.40;;;;;;;;;;5135394;27;20043;-61
2023/03/19 03:08:35;;;;;;;8.40;6.15;;;;;;;;;;5133259;27;20047;-61
2023/03/19 03:11:02;;;;;;;9.05;6.38;;;;;;;;;;5139685;27;20724;-61
2023/03/19 03:13:28;;;;;;;10.15;6.75;;;;;;;;;;5137211;27;20047;-61
2023/03/19 03:15:54;;;;;;;7.88;6.15;;;;;;;;;;5133867;27;20406;-60
2023/03/19 03:18:21;;;;;;;7.65;6.22;;;;;;;;;;5137474;27;20048;-60
2023/03/19 03:20:47;;;;;;;8.27;6.85;;;;;;;;;;5131839;27;20055;-61
2023/03/19 03:23:14;;;;;;;14.23;6.78;;;;;;;;;;5133285;27;20059;-60
2023/03/19 03:25:40;;;;;;;8.20;6.18;;;;;;;;;;5143036;27;20055;-59
2023/03/19 03:28:07;;;;;;;9.15;7.00;;;;;;;;;;5138804;27;20543;-60
2023/03/19 03:30:34;;;;;;;10.05;6.50;;;;;;;;;;5136264;27;20050;-61
2023/03/19 03:33:01;;;;;;;10.23;6.82;;;;;;;;;;5144444;27;20477;-60
2023/03/19 03:35:28;;;;;;;8.52;7.07;;;;;;;;;;5129783;27;20054;-61
2023/03/19 03:37:54;;;;;;;10.65;8.50;;;;;;;;;;5134015;27;20078;-59
2023/03/19 03:40:21;;;;;;;10.32;7.38;;;;;;;;;;5138141;27;20120;-60
2023/03/19 03:42:47;;;;;;;9.13;7.88;;;;;;;;;;5135362;27;20138;-60
2023/03/19 03:45:14;;;;;;;11.23;8.52;;;;;;;;;;5146259;27;20134;-61
2023/03/19 03:47:41;;;;;;;12.82;8.18;;;;;;;;;;5141696;27;20048;-61
2023/03/19 03:50:09;;;;;;;10.20;8.23;;;;;;;;;;5128882;27;20071;-61
2023/03/19 03:52:36;;;;;;;14.48;8.82;;;;;;;;;;5128860;27;20606;-60
2023/03/19 03:55:03;;;;;;;10.38;8.70;;;;;;;;;;5140494;27;20059;-59
2023/03/19 03:57:30;;;;;;;11.98;8.40;;;;;;;;;;5133658;27;20131;-62
2023/03/19 03:59:56;;;;;;;10.75;9.13;;;;;;;;;;5129421;27;20052;-61
2023/03/19 04:02:23;;;;;;;10.45;8.30;;;;;;;;;;5137341;27;21022;-60
2023/03/19 04:04:50;;;;;;;11.13;8.57;;;;;;;;;;5141475;27;20059;-62
2023/03/19 04:07:17;;;;;;;13.23;8.48;;;;;;;;;;5144326;27;20067;-61
2023/03/19 04:09:44;;;;;;;11.27;8.60;;;;;;;;;;5135158;27;20529;-61
2023/03/19 04:12:14;;;;;;;13.23;9.00;;;;;;;;;;5132705;27;20482;-61
2023/03/19 04:14:40;;;;;;;12.23;9.05;;;;;;;;;;5138983;27;20058;-61
2023/03/19 04:17:06;;;;;;;12.52;9.02;;;;;;;;;;5131187;27;20048;-60
2023/03/19 04:19:33;;;;;;;11.25;8.77;;;;;;;;;;5125395;27;20054;-61
2023/03/19 04:22:02;;;;;;;14.07;9.75;;;;;;;;;;5134019;27;20044;-62
2023/03/19 04:24:28;;;;;;;14.90;9.60;;;;;;;;;;5134432;27;20539;-61
2023/03/19 04:26:55;;;;;;;11.25;9.15;;;;;;;;;;5121701;27;20051;-62
2023/03/19 04:29:22;;;;;;;12.18;9.32;;;;;;;;;;5126148;27;20047;-61
2023/03/19 04:31:49;;;;;;;12.40;9.50;;;;;;;;;;5138272;27;20058;-62
2023/03/19 04:34:16;;;;;;;11.80;9.23;;;;;;;;;;5127884;27;20082;-62
2023/03/19 04:36:42;;;;;;;14.90;10.05;;;;;;;;;;5128106;27;20048;-60
2023/03/19 04:39:09;;;;;;;12.68;8.90;;;;;;;;;;5126341;27;20082;-60
2023/03/19 04:41:35;;;;;;;13.77;9.55;;;;;;;;;;5139701;27;20051;-61
2023/03/19 04:44:02;;;;;;;11.98;9.95;;;;;;;;;;5130751;27;20067;-60
2023/03/19 04:46:28;;;;;;;14.15;9.20;;;;;;;;;;5137619;27;20051;-59
2023/03/19 04:48:55;;;;;;;13.75;10.00;;;;;;;;;;5141336;27;20051;-61
2023/03/19 04:51:21;;;;;;;12.50;9.45;;;;;;;;;;5137727;27;20055;-60
2023/03/19 04:53:48;;;;;;;12.98;10.15;;;;;;;;;;5141914;27;20040;-60
2023/03/19 04:56:17;;;;;;;14.60;10.02;;;;;;;;;;5138808;27;20051;-61
2023/03/19 04:58:44;;;;;;;11.80;9.63;;;;;;;;;;5126903;27;20044;-60
2023/03/19 05:01:11;;;;;;;13.18;10.40;;;;;;;;;;5125034;27;20054;-61
2023/03/19 05:03:37;;;;;;;14.25;11.27;;;;;;;;;;5144174;27;20063;-60
2023/03/19 05:06:04;;;;;;;15.88;10.52;;;;;;;;;;5142470;27;20078;-60
2023/03/19 05:08:30;;;;;;;14.75;10.90;;;;;;;;;;5141120;27;20063;-61
2023/03/19 05:10:57;;;;;;;14.77;10.45;;;;;;;;;;5140813;27;20056;-60
2023/03/19 05:13:23;;;;;;;15.82;11.15;;;;;;;;;;5129249;27;20054;-60
2023/03/19 05:15:52;;;;;;;16.67;11.50;;;;;;;;;;5126661;27;20056;-61
2023/03/19 05:18:18;;;;;;;18.15;11.57;;;;;;;;;;5131792;27;20043;-61
2023/03/19 05:20:45;;;;;;;15.48;11.85;;;;;;;;;;5137857;27;20052;-61
2023/03/19 05:23:12;;;;;;;16.73;11.38;;;;;;;;;;5125030;27;20048;-61
2023/03/19 05:25:39;;;;;;;14.23;10.90;;;;;;;;;;5126421;27;20075;-61
2023/03/19 05:28:07;;;;;;;14.15;11.13;;;;;;;;;;5134172;27;20048;-60
2023/03/19 05:30:33;;;;;;;17.85;11.10;;;;;;;;;;5129992;27;20873;-60
2023/03/19 05:33:01;;;;;;;13.85;10.93;;;;;;;;;;5125634;27;20521;-60
2023/03/19 05:35:28;;;;;;;19.38;11.90;;;;;;;;;;5130368;27;20094;-60
2023/03/19 05:37:54;;;;;;;18.45;11.15;;;;;;;;;;5130415;27;20052;-61
2023/03/19 05:40:22;;;;;;;18.23;11.20;;;;;;;;;;5133297;27;20058;-60
2023/03/19 05:42:48;;;;;;;14.98;10.00;;;;;;;;;;5140853;27;20051;-60
2023/03/19 05:45:16;;;;;;;13.73;11.15;;;;;;;;;;5128715;27;20052;-60
2023/03/19 05:47:43;;;;;;;15.50;10.85;;;;;;;;;;5140148;27;20054;-62
2023/03/19 05:50:10;;;;;;;14.75;11.40;;;;;;;;;;5134642;27;20116;-61
2023/03/19 05:52:37;;;;;;;14.45;10.38;;;;;;;;;;5138619;27;20094;-60
2023/03/19 05:55:03;;;;;;;14.30;11.18;;;;;;;;;;5138571;27;20048;-60
2023/03/19 05:57:30;;;;;;;14.13;11.52;;;;;;;;;;5137652;27;20056;-61
2023/03/19 05:59:56;;;;;;;21.45;12.98;;;;;;;;;;5137762;27;20046;-60
2023/03/19 06:02:23;;;;;;;17.80;12.45;;;;;;;;;;5134680;27;20079;-60
2023/03/19 06:04:50;;;;;;;17.35;11.80;;;;;;;;;;5134045;27;20051;-61
2023/03/19 06:07:17;;;;;;;19.00;12.02;;;;;;;;;;5132455;27;20047;-60
2023/03/19 06:09:43;;;;;;;16.48;12.10;;;;;;;;;;5139778;27;20608;-61
2023/03/19 06:12:09;;;;;;;19.73;13.05;;;;;;;;;;5138839;27;20056;-61
2023/03/19 06:14:36;;;;;;;22.77;13.10;;;;;;;;;;5135153;27;20935;-60
2023/03/19 06:17:02;;;;;;;18.73;13.55;;;;;;;;;;5139786;27;20051;-60
2023/03/19 06:19:29;;;;;;;19.83;14.07;;;;;;;;;;5134713;27;20058;-61
2023/03/19 06:21:55;;;;;;;18.90;12.88;;;;;;;;;;5132587;27;20059;-62
2023/03/19 06:24:22;;;;;;;20.98;13.63;;;;;;;;;;5128876;27;20616;-60
2023/03/19 06:26:48;;;;;;;20.95;14.05;;;;;;;;;;5129466;27;20193;-61
2023/03/19 06:29:15;;;;;;;21.60;14.98;;;;;;;;;;5133492;27;20503;-61
2023/03/19 06:31:41;;;;;;;20.35;14.30;;;;;;;;;;5136115;27;20059;-61
2023/03/19 06:34:07;;;;;;;23.13;15.38;;;;;;;;;;5136451;27;20044;-60
2023/03/19 06:36:34;;;;;;;20.50;14.40;;;;;;;;;;5143813;27;20043;-61
2023/03/19 06:39:02;;;;;;;20.88;14.93;;;;;;;;;;5140233;27;20055;-61
2023/03/19 06:41:28;;;;;;;26.42;15.85;;;;;;;;;;5145999;27;20051;-62
2023/03/19 06:43:55;;;;;;;23.30;15.32;;;;;;;;;;5146094;27;20055;-61
2023/03/19 06:46:22;;;;;;;19.88;13.40;;;;;;;;;;5129912;27;20080;-59
2023/03/19 06:48:48;;;;;;;22.35;14.35;;;;;;;;;;5140863;27;20051;-60
2023/03/19 06:51:15;;;;;;;20.08;13.95;;;;;;;;;;5139874;27;20603;-61
2023/03/19 06:53:41;;;;;;;22.50;14.27;;;;;;;;;;5129141;27;20134;-62
2023/03/19 06:56:08;;;;;;;22.17;13.02;;;;;;;;;;5143381;27;20588;-60
2023/03/19 06:58:35;;;;;;;25.20;13.45;;;;;;;;;;5127398;27;20043;-62
2023/03/19 07:01:01;;;;;;;21.23;14.15;;;;;;;;;;5134459;27;20573;-61
2023/03/19 07:03:28;;;;;;;20.55;14.55;;;;;;;;;;5137927;27;20497;-60
2023/03/19 07:05:54;;;;;;;23.98;14.63;;;;;;;;;;5133284;27;20051;-60
2023/03/19 07:08:21;;;;;;;22.95;14.48;;;;;;;;;;5131266;27;20594;-60
2023/03/19 07:10:47;;;;;;;27.52;14.90;;;;;;;;;;5137455;27;20055;-60
2023/03/19 07:13:13;;;;;;;21.70;13.43;;;;;;;;;;5128940;27;20418;-61
2023/03/19 07:15:40;;;;;;;22.58;14.05;;;;;;;;;;5137501;27;20055;-60
2023/03/19 07:18:06;;;;;;;22.50;13.63;;;;;;;;;;5127521;27;20488;-61
2023/03/19 07:20:32;;;;;;;24.20;14.07;;;;;;;;;;5136232;27;20497;-61
2023/03/19 07:22:59;;;;;;;21.98;12.35;;;;;;;;;;5143942;27;20574;-61
2023/03/19 07:25:26;;;;;;;25.95;15.23;;;;;;;;;;5132190;27;20189;-62
2023/03/19 07:27:52;;;;;;;23.70;15.18;;;;;;;;;;5146435;27;20515;-61
2023/03/19 07:30:21;;;;;;;26.20;16.88;;;;;;;;;;5133750;27;20127;-61
2023/03/19 07:32:47;;;;;;;29.60;16.40;;;;;;;;;;5142939;27;20824;-62
2023/03/19 07:35:14;;;;;;;28.05;16.27;;;;;;;;;;5127226;27;20044;-60
2023/03/19 07:37:40;;;;;;;20.35;14.82;;;;;;;;;;5128636;27;20086;-61
2023/03/19 07:40:08;;;;;;;25.92;16.20;;;;;;;;;;5144904;27;20160;-61
2023/03/19 07:42:35;;;;;;;23.17;15.65;;;;;;;;;;5145375;27;20079;-62
2023/03/19 07:45:02;;;;;;;28.27;16.75;;;;;;;;;;5132513;27;20145;-61
2023/03/19 07:47:29;;;;;;;26.48;16.05;;;;;;;;;;5144233;27;20057;-61
2023/03/19 07:49:56;;;;;;;21.08;14.07;;;;;;;;;;5134786;27;20051;-61
2023/03/19 07:52:23;;;;;;;25.70;15.93;;;;;;;;;;5127728;27;20104;-61
2023/03/19 07:54:49;;;;;;;23.75;15.48;;;;;;;;;;5128401;27;20051;-61
2023/03/19 07:57:16;;;;;;;22.45;15.40;;;;;;;;;;5138984;27;20059;-62
2023/03/19 07:59:42;;;;;;;22.35;15.05;;;;;;;;;;5141719;27;20544;-60
2023/03/19 08:02:10;;;;;;;24.55;16.15;;;;;;;;;;5137523;27;20580;-60
2023/03/19 08:04:36;;;;;;;25.25;16.08;;;;;;;;;;5141551;27;20044;-61
2023/03/19 08:07:02;;;;;;;27.55;17.17;;;;;;;;;;5145214;27;20049;-61
2023/03/19 08:09:29;;;;;;;28.38;17.45;;;;;;;;;;5139287;27;20047;-60
2023/03/19 08:11:55;;;;;;;27.50;18.33;;;;;;;;;;5145823;27;20054;-62
2023/03/19 08:14:22;;;;;;;27.02;17.20;;;;;;;;;;5143625;27;20281;-62
2023/03/19 08:16:48;;;;;;;25.65;17.25;;;;;;;;;;5144388;27;20078;-62
2023/03/19 08:19:15;;;;;;;30.70;17.27;;;;;;;;;;5139492;27;20063;-61
2023/03/19 08:21:41;;;;;;;25.15;16.67;;;;;;;;;;5127076;27;20512;-60
2023/03/19 08:24:08;;;;;;;25.25;16.80;;;;;;;;;;5131678;27;20051;-60
2023/03/19 08:26:34;;;;;;;26.20;16.73;;;;;;;;;;5133383;27;20052;-62
2023/03/19 08:29:01;;;;;;;26.48;17.58;;;;;;;;;;5126943;27;20528;-60
2023/03/19 08:31:27;;;;;;;25.40;17.05;;;;;;;;;;5137248;27;20835;-61
2023/03/19 08:33:54;;;;;;;27.90;14.95;;;;;;;;;;5130825;27;20048;-61
2023/03/19 08:36:21;;;;;;;21.73;15.50;;;;;;;;;;5135414;27;20504;-60
2023/03/19 08:38:47;;;;;;;25.20;16.73;;;;;;;;;;5126172;27;20079;-60
2023/03/19 08:41:14;;;;;;;23.70;15.45;;;;;;;;;;5135187;27;20899;-62
2023/03/19 08:43:40;;;;;;;23.60;15.80;;;;;;;;;;5131810;27;20052;-62
2023/03/19 08:46:06;;;;;;;24.50;15.25;;;;;;;;;;5141636;27;20047;-60
2023/03/19 08:48:33;;;;;;;23.92;15.23;;;;;;;;;;5139387;27;20108;-63
2023/03/19 08:51:01;;;;;;;23.35;14.98;;;;;;;;;;5129963;27;20048;-60
2023/03/19 08:53:28;;;;;;;23.63;14.52;;;;;;;;;;5131077;27;20056;-61
2023/03/19 08:55:55;;;;;;;21.88;13.85;;;;;;;;;;5131082;27;20056;-61
2023/03/19 08:58:22;;;;;;;24.85;16.02;;;;;;;;;;5133340;27;20201;-60
2023/03/19 09:00:49;;;;;;;31.77;15.60;;;;;;;;;;5128083;27;20052;-60
2023/03/19 09:03:16;;;;;;;53.42;15.35;;;;;;;;;;5133743;27;20562;-61
2023/03/19 09:05:42;;;;;;;22.25;14.85;;;;;;;;;;5130432;27;20517;-61
2023/03/19 09:08:09;;;;;;;24.23;16.08;;;;;;;;;;5133591;27;20047;-65
2023/03/19 09:10:36;;;;;;;19.33;14.55;;;;;;;;;;5131500;27;20594;-60
2023/03/19 09:13:02;;;;;;;24.00;15.32;;;;;;;;;;5131687;27;20405;-62
2023/03/19 09:15:28;;;;;;;22.30;14.75;;;;;;;;;;5133475;27;20145;-62
2023/03/19 09:17:55;;;;;;;25.25;15.57;;;;;;;;;;5136519;27;20183;-60
2023/03/19 09:20:21;;;;;;;25.30;15.32;;;;;;;;;;5133511;27;20052;-60
2023/03/19 09:22:48;;;;;;;24.70;14.43;;;;;;;;;;5133664;27;20132;-60
2023/03/19 09:25:14;;;;;;;22.95;15.38;;;;;;;;;;5137573;27;20059;-60
2023/03/19 09:27:40;;;;;;;18.90;12.65;;;;;;;;;;5132557;27;20036;-60
2023/03/19 09:30:08;;;;;;;21.45;14.25;;;;;;;;;;5127704;27;20047;-60
2023/03/19 09:32:35;;;;;;;20.42;13.48;;;;;;;;;;5132501;27;20051;-60
2023/03/19 09:35:01;;;;;;;20.67;13.02;;;;;;;;;;5140374;27;20055;-61
2023/03/19 09:37:28;;;;;;;25.42;14.20;;;;;;;;;;5129114;27;20517;-59
2023/03/19 09:39:54;;;;;;;19.05;12.48;;;;;;;;;;5142215;27;20799;-60
2023/03/19 09:42:24;;;;;;;17.48;12.25;;;;;;;;;;5129739;27;20055;-62
2023/03/19 09:44:50;;;;;;;20.33;12.75;;;;;;;;;;5141138;27;20055;-60
2023/03/19 09:47:17;;;;;;;22.23;12.68;;;;;;;;;;5133468;27;20055;-60
2023/03/19 09:49:46;;;;;;;19.77;12.57;;;;;;;;;;5134308;27;20047;-60
2023/03/19 09:52:18;;;;;;;22.08;13.80;;;;;;;;;;5127977;27;20055;-59
2023/03/19 09:54:47;;;;;;;20.23;12.63;;;;;;;;;;5140266;27;20062;-60
2023/03/19 09:57:13;;;;;;;19.05;12.68;;;;;;;;;;5133558;27;20069;-60
2023/03/19 09:59:40;;;;;;;19.20;12.23;;;;;;;;;;5132591;27;20044;-61
2023/03/19 10:02:30;;;;;;;21.65;14.13;;;;;;;;;;5127748;27;20044;-61
2023/03/19 10:05:08;;;;;;;21.17;13.65;;;;;;;;;;5115978;27;20054;-60
2023/03/19 10:07:44;;;;;;;20.25;13.73;;;;;;;;;;5127698;27;20047;-61
2023/03/19 10:10:17;;;;;;;23.70;14.02;;;;;;;;;;5140324;27;20086;-59
2023/03/19 10:13:03;;;;;;;21.80;14.25;;;;;;;;;;5143498;27;20627;-61
2023/03/19 10:15:30;;;;;;;25.25;13.75;;;;;;;;;;5113378;27;20486;-61
2023/03/19 10:17:57;;;;;;;20.50;13.95;;;;;;;;;;5142633;27;20108;-61
2023/03/19 10:20:36;;;;;;;24.90;15.52;;;;;;;;;;5128309;27;20079;-60
2023/03/19 10:23:12;;;;;;;23.77;15.43;;;;;;;;;;5127679;27;20048;-62
2023/03/19 10:25:40;;;;;;;22.92;13.88;;;;;;;;;;5132598;27;20505;-61
2023/03/19 10:28:13;;;;;;;18.17;12.27;;;;;;;;;;5142426;27;20056;-62
2023/03/19 10:30:40;;;;;;;18.98;11.85;;;;;;;;;;5127586;27;20055;-60
2023/03/19 10:33:19;;;;;;;18.58;11.10;;;;;;;;;;5132814;27;20051;-61
2023/03/19 10:35:47;;;;;;;17.65;10.40;;;;;;;;;;5128250;27;20139;-60
2023/03/19 10:38:23;;;;;;;17.70;11.30;;;;;;;;;;5131445;27;20579;-60
2023/03/19 10:41:10;;;;;;;16.92;10.50;;;;;;;;;;5139029;27;20051;-60
2023/03/19 10:43:38;;;;;;;20.55;11.70;;;;;;;;;;5118782;27;20058;-60
2023/03/19 10:46:04;;;;;;;19.55;11.57;;;;;;;;;;5130529;27;20048;-61
2023/03/19 10:48:31;;;;;;;17.08;10.65;;;;;;;;;;5133485;27;20135;-60
2023/03/19 10:51:03;;;;;;;17.17;10.10;;;;;;;;;;5141410;27;20059;-60
2023/03/19 10:53:31;;;;;;;17.10;11.27;;;;;;;;;;5134257;27;20058;-60
2023/03/19 10:56:06;;;;;;;18.88;11.55;;;;;;;;;;5130418;27;20044;-60
2023/03/19 10:58:34;;;;;;;19.15;11.25;;;;;;;;;;5135730;27;20047;-61
2023/03/19 11:01:08;;;;;;;19.83;12.13;;;;;;;;;;5132286;27;20062;-64
2023/03/19 11:03:36;;;;;;;25.13;13.40;;;;;;;;;;5128905;27;20051;-60
2023/03/19 11:06:03;;;;;;;17.67;11.65;;;;;;;;;;5125212;27;20535;-60
2023/03/19 11:08:32;;;;;;;20.95;13.27;;;;;;;;;;5131841;27;20056;-60
2023/03/19 11:11:01;;;;;;;20.20;12.93;;;;;;;;;;5128355;27;20512;-60
2023/03/19 11:13:27;;;;;;;21.55;12.35;;;;;;;;;;5139084;27;20062;-59
2023/03/19 11:15:56;;;;;;;20.20;11.68;;;;;;;;;;5139569;27;20205;-59
2023/03/19 11:18:26;;;;;;;21.55;13.18;;;;;;;;;;5139106;27;20058;-59
2023/03/19 11:21:18;;;;;;;24.10;13.30;;;;;;;;;;5133444;27;20051;-61
2023/03/19 11:23:50;;;;;;;22.05;12.65;;;;;;;;;;5107511;27;20047;-60
2023/03/19 11:26:20;;;;;;;21.40;13.55;;;;;;;;;;5127108;27;20062;-62
2023/03/19 11:28:50;;;;;;;24.70;14.27;;;;;;;;;;5138034;27;20043;-59
2023/03/19 11:31:17;;;;;;;24.25;14.25;;;;;;;;;;5132789;27;20045;-61
2023/03/19 11:33:58;;;;;;;20.38;13.45;;;;;;;;;;5137639;27;20434;-59
2023/03/19 11:36:28;;;;;;;22.25;13.07;;;;;;;;;;5126412;27;20523;-59
2023/03/19 11:39:03;;;;;;;23.67;12.77;;;;;;;;;;5126597;27;20138;-60
2023/03/19 11:41:39;;;;;;;21.75;12.88;;;;;;;;;;5126613;27;20067;-61
2023/03/19 11:44:13;;;;;;;21.95;13.23;;;;;;;;;;5130656;27;20544;-60
2023/03/19 11:47:03;;;;;;;21.08;12.80;;;;;;;;;;5137531;27;20052;-60
2023/03/19 11:49:50;;;;;;;19.23;11.57;;;;;;;;;;5121966;27;20547;-60
2023/03/19 11:52:20;;;;;;;18.52;11.57;;;;;;;;;;5132256;27;20057;-61
2023/03/19 11:54:47;;;;;;;18.80;11.15;;;;;;;;;;5137917;27;20496;-61
2023/03/19 11:57:18;;;;;;;17.50;11.70;;;;;;;;;;5130986;27;20060;-60
2023/03/19 11:59:47;;;;;;;20.27;12.13;;;;;;;;;;5135446;27;20048;-60
2023/03/19 12:02:43;;;;;;;23.25;12.52;;;;;;;;;;5146572;27;20556;-60
2023/03/19 12:05:28;;;;;;;18.58;10.98;;;;;;;;;;5119352;27;20047;-60
2023/03/19 12:08:00;;;;;;;19.47;11.97;;;;;;;;;;5142053;27;20058;-60
2023/03/19 12:10:38;;;;;;;25.48;13.15;;;;;;;;;;5143436;27;20148;-61
2023/03/19 12:13:05;;;;;;;20.40;12.98;;;;;;;;;;5143063;27;20073;-60
2023/03/19 12:15:41;;;;;;;21.92;12.52;;;;;;;;;;5133578;27;20181;-60
2023/03/19 12:18:26;;;;;;;22.33;12.48;;;;;;;;;;5126048;27;20101;-60
2023/03/19 12:20:52;;;;;;;21.75;13.27;;;;;;;;;;5133563;27;20055;-60
2023/03/19 12:23:28;;;;;;;22.77;13.30;;;;;;;;;;5131083;27;20055;-61
2023/03/19 12:25:58;;;;;;;21.45;12.43;;;;;;;;;;5146070;27;20062;-60
2023/03/19 12:28:46;;;;;;;28.02;14.23;;;;;;;;;;5143355;27;20096;-60
2023/03/19 12:31:31;;;;;;;21.70;12.55;;;;;;;;;;5125554;27;20126;-59
2023/03/19 12:34:01;;;;;;;20.58;12.00;;;;;;;;;;5128676;27;20497;-60
2023/03/19 12:36:29;;;;;;;19.17;11.25;;;;;;;;;;5139138;27;20137;-62
2023/03/19 12:39:04;;;;;;;19.75;11.27;;;;;;;;;;5131732;27;20056;-60
2023/03/19 12:41:31;;;;;;;20.08;10.98;;;;;;;;;;5129864;27;20160;-60
2023/03/19 12:44:28;;;;;;;22.17;11.40;;;;;;;;;;5127390;27;20063;-62
2023/03/19 12:46:57;;;;;;;24.23;11.68;;;;;;;;;;5112330;27;20279;-61
2023/03/19 12:49:29;;;;;;;21.02;10.82;;;;;;;;;;5132604;27;20075;-59
2023/03/19 12:51:58;;;;;;;21.27;11.50;;;;;;;;;;5138485;27;20081;-63
2023/03/19 12:54:54;;;;;;;15.82;10.30;;;;;;;;;;5125771;27;20062;-60
2023/03/19 12:57:21;;;;;;;19.27;9.75;;;;;;;;;;5107539;27;20165;-61
2023/03/19 12:59:54;;;;;;;25.95;14.25;;;;;;;;;;5132568;27;20146;-60
2023/03/19 13:02:24;;;;;;;23.85;12.40;;;;;;;;;;5135502;27;20134;-60
2023/03/19 13:04:55;;;;;;;27.20;12.07;;;;;;;;;;5129163;27;20076;-61
2023/03/19 13:07:33;;;;;;;26.83;12.50;;;;;;;;;;5129772;27;20101;-60
2023/03/19 13:10:04;;;;;;;24.60;12.63;;;;;;;;;;5132061;27;20085;-62
2023/03/19 13:12:31;;;;;;;29.92;13.52;;;;;;;;;;5130067;27;20501;-61
2023/03/19 13:15:10;;;;;;;29.75;13.35;;;;;;;;;;5133175;27;20143;-61
2023/03/19 13:17:58;;;;;;;23.27;12.43;;;;;;;;;;5141399;27;20051;-60
2023/03/19 13:20:44;;;;;;;26.30;11.82;;;;;;;;;;5142099;27;20521;-62
2023/03/19 13:23:12;;;;;;;22.05;11.75;;;;;;;;;;5128392;27;20951;-60
2023/03/19 13:25:41;;;;;;;24.00;11.10;;;;;;;;;;5143675;27;20047;-60
2023/03/19 13:28:11;;;;;;;25.88;10.35;;;;;;;;;;5132375;27;20056;-60
2023/03/19 13:30:39;;;;;;;24.52;10.40;;;;;;;;;;5132917;27;20528;-60
2023/03/19 13:33:11;;;;;;;18.15;10.07;;;;;;;;;;5136077;27;20058;-59
2023/03/19 13:35:48;;;;;;;21.98;10.60;;;;;;;;;;5134573;27;20048;-60
2023/03/19 13:38:19;;;;;;;24.10;11.07;;;;;;;;;;5142454;27;20044;-60
2023/03/19 13:40:56;;;;;;;21.40;10.63;;;;;;;;;;5125522;27;20110;-60
2023/03/19 13:43:28;;;;;;;23.13;11.15;;;;;;;;;;5134623;27;20156;-61
2023/03/19 13:46:24;;;;;;;23.45;10.25;;;;;;;;;;5130399;27;20519;-60
2023/03/19 13:48:51;;;;;;;21.63;10.70;;;;;;;;;;5143800;27;20051;-61
2023/03/19 13:51:18;;;;;;;19.58;10.13;;;;;;;;;;5142914;27;20273;-61
2023/03/19 13:54:03;;;;;;;24.40;11.48;;;;;;;;;;5144912;27;20047;-61
2023/03/19 13:56:32;;;;;;;26.17;10.73;;;;;;;;;;5131393;27;20067;-61
2023/03/19 13:59:16;;;;;;;22.00;11.25;;;;;;;;;;5138436;27;20047;-61
2023/03/19 14:01:46;;;;;;;22.33;10.27;;;;;;;;;;5134838;27;20043;-59
2023/03/19 14:04:21;;;;;;;24.95;11.82;;;;;;;;;;5135621;27;20404;-60
2023/03/19 14:06:49;;;;;;;24.58;11.65;;;;;;;;;;5131767;27;20047;-61
2023/03/19 14:09:34;;;;;;;23.95;11.65;;;;;;;;;;5145766;27;20485;-59
2023/03/19 14:12:08;;;;;;;21.73;10.80;;;;;;;;;;5139609;27;20055;-60
2023/03/19 14:14:38;;;;;;;18.73;10.85;;;;;;;;;;5141847;27;20055;-62
2023/03/19 14:17:12;;;;;;;17.80;10.57;;;;;;;;;;5144435;27;20051;-59
2023/03/19 14:19:41;;;;;;;19.52;10.30;;;;;;;;;;5129282;27;20056;-59
2023/03/19 14:22:18;;;;;;;20.23;10.77;;;;;;;;;;5139642;27;20055;-59
2023/03/19 14:24:53;;;;;;;21.92;10.82;;;;;;;;;;5142504;27;20058;-60
2023/03/19 14:27:29;;;;;;;18.80;9.65;;;;;;;;;;5134718;27;20047;-59
2023/03/19 14:29:56;;;;;;;20.75;11.18;;;;;;;;;;5143542;27;20044;-60
2023/03/19 14:32:28;;;;;;;18.05;10.70;;;;;;;;;;5143407;27;20050;-61
2023/03/19 14:34:55;;;;;;;19.95;9.98;;;;;;;;;;5132325;27;20509;-60